Washington, PA

6:40 AM EST on January 22, 2017 (GMT -0500)
Cario Drive | | Change Station

Elev 1073 ft 40.16 °N, 80.24 °W | Updated 9 seconds ago

Mostly Cloudy
Mostly Cloudy
41.7 °F
Feels Like 42 °F
N
0.0
Wind Variable Wind from SE

Today
High -- | Low -- °F
--% Chance of Precip.
Yesterday
High -- | Low -- °F
Precip. -- in
Pressure 29.63 in
Visibility 0.5 miles
Clouds Mostly Cloudy 100 ft
Windchill 42 °F
Dew Point 41 °F
Humidity 99%
Rainfall 0.00 in
Snow Depth Not available.
7:37 AM 5:28 PM
Waning Crescent, 27% visible
METAR KAFJ 221135Z AUTO 00000KT 1/2SM BKN001 06/05 A2963 RMK AO1
Pressure 29.63 in
Visibility 0.5 miles
Clouds Mostly Cloudy 100 ft
Windchill 42 °F
Dew Point 41 °F
Humidity 99%
Rainfall 0.00 in
Snow Depth Not available.
7:37 AM 5:28 PM
Waning Crescent, 27% visible
METAR KAFJ 221135Z AUTO 00000KT 1/2SM BKN001 06/05 A2963 RMK AO1

Get Your Daily Forecast Email!

Thanks for signing up!

Be on the lookout for a verification email in your inbox.

You'll start receiving the daily forecast at 8 AM.

×

10-Day Weather Forecast

Almanac

Astronomy

Jan. 22, 2017 Rise Set
Actual Time
Civil Twilight
Nautical Twilight
Astronomical Twilight
Moon
Length of Visible Light
Length of Day
Tomorrow will be .
, % of the Moon is Illuminated

Today's Extremes

State Highs State Lows

Community

WunderPhotos

Upload Photos

1,962,540 photos uploaded!

WunderBlog® & News

Nearby

Air Quality

  Air Quality AQ Index Pollutant
Not available.

Snow Depth

Station Depth Elevation

Earthquake Activity

City Distance Mag. Time & Date
Minimum magnitude displayed is 2.5.

Coastal Water Temperatures

Place Temperature

Stations

Nearby Weather Stations

Station Location Temp. Windchill Dew Point Humidity Wind Precip. Elev Updated Type
                   

Watches & Warnings

There are currently no watches in effect.